KCWA/CWA METAR and TAF weather

Enter ICAO airport designator
Station Type Date Time Source
KCWA METAR 2021/07/30 06:15 UTC NOAA

KCWA 300615Z AUTO 07005KT 10SM CLR 14/13 A3016 RMK AO2


Station Type Date Time Source
KCWA Decoded METAR 2021/07/30 06:15 UTC NOAA

Mosinee / Central Wisconsin, WI, United States (KCWA) 44-47N 089-40W
Jul 30, 2021 - 02:15 AM EDT / 2021.07.30 0615 UTC
Wind: from the ENE (070 degrees) at 6 MPH (5 KT):0
Visibility: 10 mile(s):0
Sky conditions: clear
Temperature: 57 F (14 C)
Dew Point: 55 F (13 C)
Relative Humidity: 93%
Pressure (altimeter): 30.16 in. Hg (1021 hPa)
ob: KCWA 300615Z AUTO 07005KT 10SM CLR 14/13 A3016 RMK AO2
cycle: 6

Station Type Date Time Source
KCWA TAF 2021/07/30 06:22 UTC NOAA

TAF KCWA 300520Z 3006/3106 05004KT 6SM HZ SCT250
FM300900 05003KT P6SM SCT250
FM301300 31003KT P6SM SCT250
FM310000 22004KT P6SM SKC

Example: see airport list